Nita E — WTH5609 — position and weather

sailwx.info

Track history (hours):
 
Tides and Currents Weather Stations Pressure Air Temp Water Temp Dewpoint Dewpoint Depression Visibility Wind Speed Wind Dir Waves Ship Positions

Nita E

Owner: ECHO TOWING SERVICE INC, BAYTOWN, TX. More information available from US FCC via Universal Licensing System and Coast Guard Vessel Documentation Center.

Last reported at 2017-Oct-17 08:08 UTC. Time now 2017-Oct-17 22:36 UTC.
Position N 29°44' W 095°08'.

Length 18 m; draft 2.2 m.

Type: Tug. MMSI: 365920564.

Date/timePositionNaut miles runAvg speedWind from/ knotsBaromVisibWave heightAir tempDewpointWater temp
2017-Oct-17 08:08N 29°44' W 095°08'5 6.5
2017-Oct-17 07:26N 29°43' W 095°13'3 2.4
2017-Oct-17 06:08N 29°44' W 095°17'1 1.1
2017-Oct-17 05:40N 29°44' W 095°16'  
2017-Oct-12 03:23N 29°44' W 095°08'3 7.0
2017-Oct-12 02:57N 29°45' W 095°11'4 6.6
2017-Oct-12 02:20N 29°44' W 095°16'0 0.1
2017-Oct-12 00:55N 29°44' W 095°16'  
2017-Oct-09 02:30N 29°43' W 095°17'11 0.7
2017-Oct-08 11:16N 29°46' W 095°04'4 6.0
2017-Oct-08 10:38N 29°43' W 095°01'1 5.9
2017-Oct-08 10:30N 29°42' W 095°01'3 5.7
2017-Oct-08 10:00N 29°40' W 094°59'3 6.6
2017-Oct-08 09:30N 29°37' W 094°57'3 6.8
2017-Oct-08 09:00N 29°37' W 095°01'0 0.5
2017-Oct-08 08:30N 29°37' W 095°01'3 5.5
2017-Oct-08 07:57N 29°38' W 094°58'3 6.7
2017-Oct-08 07:30N 29°40' W 094°59'3 0.3
2017-Oct-07 22:22N 29°42' W 095°01'2 5.4
2017-Oct-07 22:00N 29°41' W 094°59'3 3.8
2017-Oct-07 21:07N 29°42' W 094°55'0 4.1
2017-Oct-07 21:00N 29°42' W 094°55'1 1.2
2017-Oct-07 20:29N 29°42' W 094°56'3 0.8
2017-Oct-07 17:23N 29°41' W 094°58'2 4.4
2017-Oct-07 16:59N 29°40' W 094°58'3 5.2
2017-Oct-07 16:28N 29°37' W 094°57'2 5.2
2017-Oct-07 16:00N 29°37' W 095°00'0 0.7
2017-Oct-07 15:30N 29°37' W 095°01'3 5.4
2017-Oct-07 15:00N 29°38' W 094°58'3 6.9
2017-Oct-07 14:30N 29°41' W 094°59'8 1.9
2017-Oct-07 10:26N 29°46' W 095°05'  
Track history (hours):
 
Tides and Currents Weather Stations Pressure Air Temp Water Temp Dewpoint Dewpoint Depression Visibility Wind Speed Wind Dir Waves Ship Positions

Nita E

Owner: ECHO TOWING SERVICE INC, BAYTOWN, TX. More information available from US FCC via Universal Licensing System and Coast Guard Vessel Documentation Center.

Last reported at 2017-Oct-17 08:08 UTC. Time now 2017-Oct-17 22:36 UTC.
Position N 29°44' W 095°08'.

Length 18 m; draft 2.2 m.

Type: Tug. MMSI: 365920564.

Date/timePositionNaut miles runAvg speedWind from/ knotsBaromVisibWave heightAir tempDewpointWater temp
2017-Oct-17 08:08N 29°44' W 095°08'5 6.5
2017-Oct-17 07:26N 29°43' W 095°13'3 2.4
2017-Oct-17 06:08N 29°44' W 095°17'1 1.1
2017-Oct-17 05:40N 29°44' W 095°16'  
2017-Oct-12 03:23N 29°44' W 095°08'3 7.0
2017-Oct-12 02:57N 29°45' W 095°11'4 6.6
2017-Oct-12 02:20N 29°44' W 095°16'0 0.1
2017-Oct-12 00:55N 29°44' W 095°16'  
2017-Oct-09 02:30N 29°43' W 095°17'11 0.7
2017-Oct-08 11:16N 29°46' W 095°04'4 6.0
2017-Oct-08 10:38N 29°43' W 095°01'1 5.9
2017-Oct-08 10:30N 29°42' W 095°01'3 5.7
2017-Oct-08 10:00N 29°40' W 094°59'3 6.6
2017-Oct-08 09:30N 29°37' W 094°57'3 6.8
2017-Oct-08 09:00N 29°37' W 095°01'0 0.5
2017-Oct-08 08:30N 29°37' W 095°01'3 5.5
2017-Oct-08 07:57N 29°38' W 094°58'3 6.7
2017-Oct-08 07:30N 29°40' W 094°59'3 0.3
2017-Oct-07 22:22N 29°42' W 095°01'2 5.4
2017-Oct-07 22:00N 29°41' W 094°59'3 3.8
2017-Oct-07 21:07N 29°42' W 094°55'0 4.1
2017-Oct-07 21:00N 29°42' W 094°55'1 1.2
2017-Oct-07 20:29N 29°42' W 094°56'3 0.8
2017-Oct-07 17:23N 29°41' W 094°58'2 4.4
2017-Oct-07 16:59N 29°40' W 094°58'3 5.2
2017-Oct-07 16:28N 29°37' W 094°57'2 5.2
2017-Oct-07 16:00N 29°37' W 095°00'0 0.7
2017-Oct-07 15:30N 29°37' W 095°01'3 5.4
2017-Oct-07 15:00N 29°38' W 094°58'3 6.9
2017-Oct-07 14:30N 29°41' W 094°59'8 1.9
2017-Oct-07 10:26N 29°46' W 095°05'  

Dump ship's entire track history